METAR Data
IDs: Format: Raw Decoded Include TAF

Data at: 1348 UTC 07 Jul 2020

KCSV 071253Z AUTO 00000KT 10SM BKN036 BKN080 BKN100 22/19 A3008 RMK AO2 RAE19 SLP165 P0001 T02170194
KCSV 071153Z AUTO 00000KT 4SM -RA BR FEW065 SCT100 BKN120 21/19 A3007 RMK AO2 RAB48 SLP161 P0001 60003 70005 T02060194 10206 20200 53005
KCSV 071053Z AUTO 00000KT 9SM SCT110 20/19 A3007 RMK AO2 SLP159 T02000189
KCSV 070953Z AUTO 27003KT 10SM OVC100 20/19 A3006 RMK AO2 SLP156 T02000189
KCSV 070853Z AUTO 17004KT 10SM OVC110 21/19 A3006 RMK AO2 SLP155 60002 T02060189 56005
KCSV 070753Z AUTO 00000KT 10SM CLR 20/19 A3006 RMK AO2 SLP156 T02000189
KCSV 070653Z AUTO 00000KT 10SM SCT110 20/19 A3006 RMK AO2 RAE29 SLP156 P0002 T02000189
KCSV 070553Z AUTO 00000KT 9SM -RA FEW085 SCT120 20/18 A3007 RMK AO2 RAB12 SLP160 P0002 60002 T02000183 10272 20200 402940194 58005
KCSV 070453Z AUTO 18004KT 10SM BKN048 BKN095 BKN120 21/18 A3010 RMK AO2 LTG DSNT W SLP169 T02110178
KCSV 070448Z AUTO 17004KT 10SM BKN048 OVC090 21/18 A3010 RMK AO2 LTG DSNT SW AND W
KCSV 070433Z AUTO 14005KT 10SM VCTS OVC050 21/17 A3011 RMK AO2 LTG DSNT SW AND W T02110172
KCSV 070353Z AUTO 17006KT 10SM FEW049 SCT060 22/17 A3009 RMK AO2 LTG DSNT E-SW SLP166 T02220172
KCSV 070253Z AUTO 00000KT 10SM SCT050 BKN060 23/18 A3007 RMK AO2 LTG DSNT SE SLP160 T02280183 53011
KCSV 070153Z AUTO 00000KT 10SM SCT055 23/17 A3006 RMK AO2 SLP156 T02280172
KCSV 070053Z AUTO 00000KT 10SM CLR 24/17 A3005 RMK AO2 SLP152 T02440172
KCSV 062353Z AUTO 12004KT 10SM CLR 27/17 A3004 RMK AO2 SLP149 T02720167 10294 20272 56002
KCSV 062253Z AUTO 10005KT 10SM CLR 28/16 A3004 RMK AO2 SLP149 T02780161
KCSV 062153Z AUTO VRB04KT 10SM FEW047 29/18 A3004 RMK AO2 SLP149 T02890178
KCSV 062053Z AUTO VRB04KT 10SM FEW050 28/18 A3005 RMK AO2 SLP151 T02830178 56015
KCSV 061953Z AUTO VRB03KT 10SM SCT047 29/18 A3006 RMK AO2 SLP156 T02940183
KCSV 061853Z AUTO 08004KT 10SM SCT047 BKN065 28/18 A3007 RMK AO2 SLP158 T02830183
KCSV 061753Z AUTO VRB04KT 10SM BKN045 29/18 A3009 RMK AO2 SLP165 T02890178 10294 20217 58009
KCSV 061653Z AUTO 00000KT 10SM FEW039 28/18 A3011 RMK AO2 SLP173 T02780183
KCSV 061553Z AUTO 21003KT 10SM CLR 27/18 A3013 RMK AO2 SLP179 T02670183
KCSV 061453Z AUTO 20005KT 10SM CLR 26/18 A3012 RMK AO2 SLP177 T02560183 51011
KCSV 061353Z AUTO 17006KT 10SM CLR 24/18 A3011 RMK AO2 SLP176 T02440183
KCSV 061253Z AUTO 00000KT 10SM CLR 23/19 A3010 RMK AO2 SLP172 T02330189
KCSV 061153Z AUTO 00000KT 10SM CLR 22/19 A3008 RMK AO2 SLP165 70009 T02170189 10222 20194 53015
KCSV 061053Z AUTO 00000KT 10SM CLR 20/18 A3006 RMK AO2 SLP159 T02000178
KCSV 060953Z AUTO 00000KT 10SM CLR 19/18 A3006 RMK AO2 SLP158 T01940178
KCSV 060853Z AUTO 00000KT 10SM CLR 19/18 A3004 RMK AO2 SLP151 T01940178 55003
KCSV 060753Z AUTO 00000KT 10SM CLR 20/18 A3002 RMK AO2 SLP147 T02000178
KCSV 060653Z AUTO 00000KT 10SM CLR 21/18 A3003 RMK AO2 SLP151 T02110183
KCSV 060553Z AUTO 00000KT 10SM CLR 22/19 A3005 RMK AO2 SLP154 T02170189 10250 20211 402830200 56003
KCSV 060453Z AUTO 00000KT 10SM CLR 22/19 A3005 RMK AO2 SLP150 T02220194
KCSV 060353Z AUTO 00000KT 9SM CLR 22/20 A3005 RMK AO2 SLP153 T02170200
KCSV 060253Z AUTO 00000KT 8SM CLR 22/21 A3006 RMK AO2 SLP155 T02170206 52010
KCSV 060153Z AUTO 00000KT 9SM CLR 22/21 A3004 RMK AO2 SLP152 T02170206